Stanstead, Canada
Current Conditions -  °F | °C
As of 6:35 AM on Thursday 18 Dec 2014 (Local Time) from KEFK Reporting Station
Light Snow Light Snow  
Wind Chill: 24°   Ceiling: 1400
Heat Index: 31°   Visibility: 5mi
Dew Point: 29°   Wind: 7mph
Humidity: 93%   Direction: 330°NNW
Pressure: 29.73"   Gusts: NA
Location:  45.02°N, 72.08°W
Report Text: KEFK 181135Z AUTO 33006KT 5SM -SN SCT009 BKN014 OVC044 M01/M02 A2973 RMK AO2 T10081018
Loading
Personal Weather Stations






























Interactive Weather Map New forecast layout! Learn more

10-Day Weather Forecast

Advertisements
Track Severe Weather on mobile